METAR Data
IDs: Format: Raw Decoded Include TAF

Data at: 1155 UTC 24 Jan 2021

No METAR found for EDDT
No TAF found for EDDT

EDDF 241150Z 25013KT 9999 FEW007 SCT020 BKN040 03/01 Q0999 R25C/29//95 R25L/29//95 R18/29//95 NOSIG

TAF EDDF 241100Z 2412/2518 23012KT 9999 BKN020
  PROB30
  TEMPO 2412/2414 25015G25KT
  BECMG 2416/2418 22005KT FEW030
  BECMG 2423/2502 07003KT BKN020
  TEMPO 2502/2512 3000 -SN BKN010


EDDM 241150Z 25021KT 9999 SCT041 02/M05 Q1000 R26L/290095 NOSIG

TAF EDDM 241100Z 2412/2518 25020G30KT 9999 SCT035
  BECMG 2417/2419 24010KT
  BECMG 2420/2422 23005KT
  BECMG 2500/2502 VRB03KT
  TEMPO 2509/2518 4500 -SN BKN012
  BECMG 2509/2511 25005KT
  PROB40
  TEMPO 2513/2518 1200 SHSN BKN004 BKN009TCU


EDDV 241150Z 29003KT 260V330 9999 -RA FEW007 BKN060 02/00 Q0996 NOSIG

TAF EDDV 241100Z 2412/2512 34004KT 9000 BKN020
  TEMPO 2412/2419 4500 -SNRA BR BKN006
  TEMPO 2419/2509 3500 BR BKN008
  PROB30
  TEMPO 2500/2509 1200 BR BKN003
  BECMG 2509/2512 25005KT


EDDW 241150Z 28004KT 5000 BR FEW015 SCT042 03/01 Q0997 NOSIG

TAF EDDW 241100Z 2412/2512 30004KT 6000 BKN020
  TEMPO 2412/2418 3500 BR BKN013
  BECMG 2418/2420 4000 BR
  TEMPO 2418/2509 1200 BR BKN003
  PROB30
  TEMPO 2420/2509 0300 FZFG OVC001
  BECMG 2509/2512 24006KT 7000


EDDL 241150Z 26009KT 9999 BKN007 02/00 Q1000 R05R/290295 R05L/290295 BECMG BKN012

TAF EDDL 241100Z 2412/2518 26009KT 9999 BKN007
  BECMG 2413/2416 SCT020
  BECMG 2415/2418 19006KT
  BECMG 2421/2424 13005KT
  BECMG 2503/2506 VRB03KT
  TEMPO 2505/2510 3000 -SN BR BKN010
  BECMG 2508/2511 32005KT
  BECMG 2513/2516 24005KT


EDDK 241150Z 28013KT 9999 SCT007 BKN009 01/M00 Q1000 R14L/190295 R06///99// R14R///99// BECMG BKN012

TAF EDDK 241100Z 2412/2518 27010KT 9999 BKN007
  TEMPO 2412/2414 SCT010 BKN015
  BECMG 2414/2417 20005KT SCT020
  BECMG 2417/2420 12006KT
  BECMG 2503/2506 VRB03KT
  TEMPO 2504/2511 3500 -SN BR BKN010
  PROB30
  TEMPO 2505/2510 2000 SN BKN005
  BECMG 2511/2514 30005KT


EDDS 241150Z 25017G27KT 220V280 9999 FEW027 BKN032 02/M04 Q1001 NOSIG

TAF EDDS 241100Z 2412/2512 24010KT 9999 BKN025
  TEMPO 2412/2415 24015G25KT
  BECMG 2418/2420 17003KT
  BECMG 2501/2504 4000 -SN BKN012
  TEMPO 2504/2510 2000 SN BKN005
  BECMG 2508/2510 9999 BKN025
  PROB30
  TEMPO 2510/2512 4000 -SHSN BKN012CB


EDDC 241150Z 17007KT 2000 -SN BR BKN004 BKN015 00/00 Q0994 RESN R04/29//95 TEMPO 1400 SN

TAF EDDC 241100Z 2412/2512 16004KT 3500 -SNRA SCT013
  BECMG 2412/2415 22005KT BKN008
  PROB30
  TEMPO 2412/2416 0700 SNRA BKN001
  BECMG 2416/2419 28005KT 2500 -SN BKN004
  PROB40
  TEMPO 2418/2421 0700 SNRA BKN001
  BECMG 2419/2421 3500 BR
  BECMG 2501/2503 SCT004 BKN007
  PROB30
  TEMPO 2506/2509 1100 BR
  BECMG 2509/2512 6000 BKN013


EDVE 241150Z 34004KT 320V020 4700 -SN OVC004 01/M00 Q0996

TAF EDVE 241100Z 2412/2421 32004KT 9000 BKN012
  TEMPO 2412/2421 4500 -SNRA BR BKN006